sensor_id;sensor_type;location;lat;lon;timestamp;pressure;altitude;pressure_sealevel;temperature;humidity
55470;BME280;41334;47.872;16.384;2023-07-28T00:05:01;98484.81;;;17.23;53.50
55470;BME280;41334;47.872;16.384;2023-07-28T00:10:03;98471.13;;;17.14;54.43
55470;BME280;41334;47.872;16.384;2023-07-28T00:15:05;98463.13;;;17.13;52.89
55470;BME280;41334;47.872;16.384;2023-07-28T00:20:08;98452.88;;;17.24;52.70
55470;BME280;41334;47.872;16.384;2023-07-28T00:25:10;98453.66;;;17.24;52.72
55470;BME280;41334;47.872;16.384;2023-07-28T00:30:11;98448.09;;;17.28;53.03
55470;BME280;41334;47.872;16.384;2023-07-28T00:35:14;98451.72;;;17.28;57.04
55470;BME280;41334;47.872;16.384;2023-07-28T00:40:16;98455.69;;;17.27;55.77
55470;BME280;41334;47.872;16.384;2023-07-28T00:45:18;98445.28;;;17.28;55.89
55470;BME280;41334;47.872;16.384;2023-07-28T00:50:20;98430.13;;;17.29;56.77
55470;BME280;41334;47.872;16.384;2023-07-28T00:55:23;98437.31;;;17.30;55.51
55470;BME280;41334;47.872;16.384;2023-07-28T01:00:25;98434.19;;;17.35;55.07
55470;BME280;41334;47.872;16.384;2023-07-28T01:05:46;98429.72;;;17.30;56.41
55470;BME280;41334;47.872;16.384;2023-07-28T01:10:50;98436.34;;;17.15;57.51
55470;BME280;41334;47.872;16.384;2023-07-28T01:15:52;98427.09;;;17.11;58.96
55470;BME280;41334;47.872;16.384;2023-07-28T01:20:56;98432.41;;;16.90;62.18
55470;BME280;41334;47.872;16.384;2023-07-28T01:26:08;98426.41;;;16.88;59.85
55470;BME280;41334;47.872;16.384;2023-07-28T01:31:11;98434.41;;;16.89;59.79
55470;BME280;41334;47.872;16.384;2023-07-28T01:36:13;98446.03;;;16.91;59.86
55470;BME280;41334;47.872;16.384;2023-07-28T01:41:15;98447.59;;;16.89;59.53
55470;BME280;41334;47.872;16.384;2023-07-28T01:46:17;98444.31;;;16.83;58.68
55470;BME280;41334;47.872;16.384;2023-07-28T01:51:19;98437.44;;;16.77;57.23
55470;BME280;41334;47.872;16.384;2023-07-28T01:56:20;98428.59;;;16.75;58.03
55470;BME280;41334;47.872;16.384;2023-07-28T02:01:22;98422.97;;;16.71;59.65
55470;BME280;41334;47.872;16.384;2023-07-28T02:06:24;98413.63;;;16.64;58.69
55470;BME280;41334;47.872;16.384;2023-07-28T02:11:26;98402.09;;;16.65;60.13
55470;BME280;41334;47.872;16.384;2023-07-28T02:16:28;98405.31;;;16.67;59.03
55470;BME280;41334;47.872;16.384;2023-07-28T02:21:32;98412.19;;;16.70;58.49
55470;BME280;41334;47.872;16.384;2023-07-28T02:26:34;98402.91;;;16.66;58.58
55470;BME280;41334;47.872;16.384;2023-07-28T02:31:36;98409.63;;;16.61;58.47
55470;BME280;41334;47.872;16.384;2023-07-28T02:36:38;98419.94;;;16.57;58.71
55470;BME280;41334;47.872;16.384;2023-07-28T02:41:40;98415.47;;;16.52;59.22
55470;BME280;41334;47.872;16.384;2023-07-28T02:46:42;98411.78;;;16.45;58.77
55470;BME280;41334;47.872;16.384;2023-07-28T02:51:44;98416.41;;;16.33;59.56
55470;BME280;41334;47.872;16.384;2023-07-28T02:56:46;98407.88;;;16.26;58.91
55470;BME280;41334;47.872;16.384;2023-07-28T03:01:48;98405.88;;;16.23;58.59
55470;BME280;41334;47.872;16.384;2023-07-28T03:06:54;98409.78;;;16.19;59.95
55470;BME280;41334;47.872;16.384;2023-07-28T03:11:56;98404.13;;;16.15;60.66
55470;BME280;41334;47.872;16.384;2023-07-28T03:16:58;98394.91;;;16.11;61.11
55470;BME280;41334;47.872;16.384;2023-07-28T03:22:00;98396.50;;;16.12;60.63
55470;BME280;41334;47.872;16.384;2023-07-28T03:27:03;98384.13;;;16.13;61.04
55470;BME280;41334;47.872;16.384;2023-07-28T03:32:06;98398.19;;;16.17;61.04
55470;BME280;41334;47.872;16.384;2023-07-28T03:37:07;98397.31;;;16.13;62.59
55470;BME280;41334;47.872;16.384;2023-07-28T03:42:11;98409.59;;;16.08;62.69
55470;BME280;41334;47.872;16.384;2023-07-28T03:47:13;98418.19;;;15.96;63.29
55470;BME280;41334;47.872;16.384;2023-07-28T03:52:15;98400.19;;;15.93;64.30
55470;BME280;41334;47.872;16.384;2023-07-28T03:57:17;98405.38;;;15.95;64.34
55470;BME280;41334;47.872;16.384;2023-07-28T04:02:21;98393.47;;;15.98;64.82
55470;BME280;41334;47.872;16.384;2023-07-28T04:07:25;98397.53;;;16.27;64.33
55470;BME280;41334;47.872;16.384;2023-07-28T04:12:27;98389.78;;;16.43;61.81
55470;BME280;41334;47.872;16.384;2023-07-28T04:17:30;98403.94;;;16.54;62.93
55470;BME280;41334;47.872;16.384;2023-07-28T04:22:35;98395.69;;;16.65;61.74
55470;BME280;41334;47.872;16.384;2023-07-28T04:34:11;98410.31;;;16.81;60.24
55470;BME280;41334;47.872;16.384;2023-07-28T05:02:24;98387.78;;;17.37;58.95
55470;BME280;41334;47.872;16.384;2023-07-28T05:08:54;98384.59;;;17.73;58.11
55470;BME280;41334;47.872;16.384;2023-07-28T05:37:20;98389.97;;;19.24;53.38
55470;BME280;41334;47.872;16.384;2023-07-28T05:43:15;98395.69;;;19.56;51.84
55470;BME280;41334;47.872;16.384;2023-07-28T05:48:17;98400.97;;;19.96;52.56
55470;BME280;41334;47.872;16.384;2023-07-28T05:53:22;98400.63;;;20.27;51.03
55470;BME280;41334;47.872;16.384;2023-07-28T05:58:28;98423.06;;;20.02;51.03
55470;BME280;41334;47.872;16.384;2023-07-28T06:03:30;98414.69;;;20.12;50.94
55470;BME280;41334;47.872;16.384;2023-07-28T06:08:42;98420.22;;;19.73;50.46
55470;BME280;41334;47.872;16.384;2023-07-28T06:13:44;98425.91;;;19.94;49.82
55470;BME280;41334;47.872;16.384;2023-07-28T06:18:48;98416.66;;;20.26;49.13
55470;BME280;41334;47.872;16.384;2023-07-28T06:23:54;98407.00;;;19.81;49.58
55470;BME280;41334;47.872;16.384;2023-07-28T06:28:56;98398.56;;;20.59;48.37
55470;BME280;41334;47.872;16.384;2023-07-28T06:33:58;98410.50;;;21.13;46.53
55470;BME280;41334;47.872;16.384;2023-07-28T06:39:00;98398.88;;;21.77;45.28
55470;BME280;41334;47.872;16.384;2023-07-28T06:44:02;98403.75;;;22.25;45.93
55470;BME280;41334;47.872;16.384;2023-07-28T06:49:04;98400.44;;;22.79;45.46
55470;BME280;41334;47.872;16.384;2023-07-28T06:54:06;98391.09;;;22.82;43.76
55470;BME280;41334;47.872;16.384;2023-07-28T06:59:14;98385.88;;;23.18;42.34
55470;BME280;41334;47.872;16.384;2023-07-28T07:04:22;98389.06;;;23.51;43.18
55470;BME280;41334;47.872;16.384;2023-07-28T07:09:24;98389.75;;;23.89;41.28
55470;BME280;41334;47.872;16.384;2023-07-28T07:14:27;98372.00;;;24.12;41.59
55470;BME280;41334;47.872;16.384;2023-07-28T07:19:29;98375.25;;;24.34;39.93
55470;BME280;41334;47.872;16.384;2023-07-28T07:24:31;98374.09;;;24.31;37.13
55470;BME280;41334;47.872;16.384;2023-07-28T07:29:33;98369.22;;;24.55;37.80
55470;BME280;41334;47.872;16.384;2023-07-28T07:34:34;98379.94;;;24.87;36.92
55470;BME280;41334;47.872;16.384;2023-07-28T07:39:38;98389.28;;;25.28;35.29
55470;BME280;41334;47.872;16.384;2023-07-28T07:44:42;98384.53;;;25.01;36.42
55470;BME280;41334;47.872;16.384;2023-07-28T07:49:44;98384.81;;;25.47;34.69
55470;BME280;41334;47.872;16.384;2023-07-28T07:54:46;98380.44;;;25.42;35.74
55470;BME280;41334;47.872;16.384;2023-07-28T07:59:48;98378.81;;;25.81;33.62
55470;BME280;41334;47.872;16.384;2023-07-28T08:04:51;98380.66;;;26.53;33.96
55470;BME280;41334;47.872;16.384;2023-07-28T08:09:54;98385.19;;;26.66;34.55
55470;BME280;41334;47.872;16.384;2023-07-28T08:14:56;98395.81;;;26.79;34.68
55470;BME280;41334;47.872;16.384;2023-07-28T08:19:58;98381.94;;;26.81;33.60
55470;BME280;41334;47.872;16.384;2023-07-28T08:25:00;98389.56;;;27.42;33.27
55470;BME280;41334;47.872;16.384;2023-07-28T08:30:06;98389.13;;;27.56;33.04
55470;BME280;41334;47.872;16.384;2023-07-28T08:35:09;98388.25;;;27.97;33.26
55470;BME280;41334;47.872;16.384;2023-07-28T08:40:11;98371.13;;;28.36;32.78
55470;BME280;41334;47.872;16.384;2023-07-28T08:45:13;98384.97;;;28.59;31.96
55470;BME280;41334;47.872;16.384;2023-07-28T08:50:16;98389.59;;;28.78;31.56
55470;BME280;41334;47.872;16.384;2023-07-28T08:55:18;98385.28;;;29.30;31.15
55470;BME280;41334;47.872;16.384;2023-07-28T09:00:20;98386.22;;;29.27;29.67
55470;BME280;41334;47.872;16.384;2023-07-28T09:05:22;98388.63;;;29.82;29.29
55470;BME280;41334;47.872;16.384;2023-07-28T09:10:40;98382.66;;;29.98;29.35
55470;BME280;41334;47.872;16.384;2023-07-28T09:15:43;98383.25;;;29.93;30.55
55470;BME280;41334;47.872;16.384;2023-07-28T09:20:44;98386.63;;;30.69;26.76
55470;BME280;41334;47.872;16.384;2023-07-28T09:25:47;98392.72;;;30.12;27.75
55470;BME280;41334;47.872;16.384;2023-07-28T09:30:49;98396.38;;;30.90;28.30
55470;BME280;41334;47.872;16.384;2023-07-28T09:35:52;98389.16;;;32.10;27.23
55470;BME280;41334;47.872;16.384;2023-07-28T09:40:55;98382.13;;;31.69;26.09
55470;BME280;41334;47.872;16.384;2023-07-28T09:45:59;98385.72;;;31.87;26.92
55470;BME280;41334;47.872;16.384;2023-07-28T09:51:12;98391.25;;;31.49;27.23
55470;BME280;41334;47.872;16.384;2023-07-28T09:56:17;98386.94;;;31.62;27.47
55470;BME280;41334;47.872;16.384;2023-07-28T10:01:20;98385.66;;;32.06;25.90
55470;BME280;41334;47.872;16.384;2023-07-28T10:06:23;98379.91;;;31.73;25.43
55470;BME280;41334;47.872;16.384;2023-07-28T10:11:27;98383.31;;;31.16;27.52
55470;BME280;41334;47.872;16.384;2023-07-28T10:16:39;98406.44;;;29.95;30.41
55470;BME280;41334;47.872;16.384;2023-07-28T10:21:41;98401.56;;;29.43;36.94
55470;BME280;41334;47.872;16.384;2023-07-28T10:26:44;98411.00;;;28.96;35.96
55470;BME280;41334;47.872;16.384;2023-07-28T10:31:53;98403.13;;;28.52;38.37
55470;BME280;41334;47.872;16.384;2023-07-28T10:36:59;98415.44;;;28.49;39.88
55470;BME280;41334;47.872;16.384;2023-07-28T10:47:46;98428.00;;;28.39;37.60
55470;BME280;41334;47.872;16.384;2023-07-28T10:52:49;98428.94;;;28.11;36.64
55470;BME280;41334;47.872;16.384;2023-07-28T10:57:53;98434.41;;;28.18;36.16
55470;BME280;41334;47.872;16.384;2023-07-28T11:02:56;98432.88;;;27.33;34.03
55470;BME280;41334;47.872;16.384;2023-07-28T11:08:00;98427.88;;;27.25;33.75
55470;BME280;41334;47.872;16.384;2023-07-28T11:13:05;98432.13;;;27.04;33.50
55470;BME280;41334;47.872;16.384;2023-07-28T11:18:27;98417.19;;;27.83;32.13
55470;BME280;41334;47.872;16.384;2023-07-28T11:23:29;98415.13;;;28.09;31.72
55470;BME280;41334;47.872;16.384;2023-07-28T11:28:31;98420.16;;;28.91;30.20
55470;BME280;41334;47.872;16.384;2023-07-28T11:33:33;98410.31;;;29.26;29.94
55470;BME280;41334;47.872;16.384;2023-07-28T11:38:38;98401.72;;;30.51;27.86
55470;BME280;41334;47.872;16.384;2023-07-28T11:43:41;98407.91;;;30.40;27.62
55470;BME280;41334;47.872;16.384;2023-07-28T11:48:48;98396.50;;;30.77;27.43
55470;BME280;41334;47.872;16.384;2023-07-28T11:53:50;98392.22;;;30.72;27.11
55470;BME280;41334;47.872;16.384;2023-07-28T11:58:52;98382.38;;;31.01;27.41
55470;BME280;41334;47.872;16.384;2023-07-28T12:03:54;98376.47;;;30.58;28.32
55470;BME280;41334;47.872;16.384;2023-07-28T12:09:05;98377.19;;;30.31;27.45
55470;BME280;41334;47.872;16.384;2023-07-28T12:14:11;98349.75;;;30.52;28.50
55470;BME280;41334;47.872;16.384;2023-07-28T12:19:15;98367.88;;;30.58;27.18
55470;BME280;41334;47.872;16.384;2023-07-28T12:24:17;98352.13;;;31.46;25.72
55470;BME280;41334;47.872;16.384;2023-07-28T12:29:19;98353.22;;;31.91;26.54
55470;BME280;41334;47.872;16.384;2023-07-28T12:34:32;98341.03;;;30.83;26.12
55470;BME280;41334;47.872;16.384;2023-07-28T12:39:51;98335.31;;;30.83;26.79
55470;BME280;41334;47.872;16.384;2023-07-28T12:45:05;98334.53;;;30.74;27.10
55470;BME280;41334;47.872;16.384;2023-07-28T12:50:11;98333.88;;;30.70;26.59
55470;BME280;41334;47.872;16.384;2023-07-28T12:55:16;98333.03;;;31.43;26.02
55470;BME280;41334;47.872;16.384;2023-07-28T13:00:18;98320.13;;;31.38;26.39
55470;BME280;41334;47.872;16.384;2023-07-28T13:05:23;98312.47;;;31.53;26.32
55470;BME280;41334;47.872;16.384;2023-07-28T13:10:25;98311.63;;;31.01;25.25
55470;BME280;41334;47.872;16.384;2023-07-28T13:15:30;98311.66;;;30.92;26.22
55470;BME280;41334;47.872;16.384;2023-07-28T13:20:32;98316.94;;;29.67;28.27
55470;BME280;41334;47.872;16.384;2023-07-28T13:25:34;98318.91;;;29.17;29.52
55470;BME280;41334;47.872;16.384;2023-07-28T13:30:36;98328.88;;;28.21;31.38
55470;BME280;41334;47.872;16.384;2023-07-28T13:35:38;98346.09;;;27.54;34.58
55470;BME280;41334;47.872;16.384;2023-07-28T13:40:39;98332.66;;;27.55;35.75
55470;BME280;41334;47.872;16.384;2023-07-28T13:45:41;98358.75;;;27.66;34.10
55470;BME280;41334;47.872;16.384;2023-07-28T13:50:43;98372.81;;;27.44;33.81
55470;BME280;41334;47.872;16.384;2023-07-28T13:55:56;98375.50;;;26.93;35.17
55470;BME280;41334;47.872;16.384;2023-07-28T14:00:59;98392.56;;;26.48;35.95
55470;BME280;41334;47.872;16.384;2023-07-28T14:06:00;98403.06;;;26.34;38.26
55470;BME280;41334;47.872;16.384;2023-07-28T14:11:03;98407.38;;;26.23;41.46
55470;BME280;41334;47.872;16.384;2023-07-28T14:16:04;98390.00;;;26.37;43.10
55470;BME280;41334;47.872;16.384;2023-07-28T14:21:07;98423.84;;;25.79;45.01
55470;BME280;41334;47.872;16.384;2023-07-28T14:26:09;98427.31;;;25.70;44.53
55470;BME280;41334;47.872;16.384;2023-07-28T14:31:11;98428.03;;;25.34;44.15
55470;BME280;41334;47.872;16.384;2023-07-28T14:36:13;98411.88;;;25.51;45.95
55470;BME280;41334;47.872;16.384;2023-07-28T14:41:15;98425.16;;;25.74;47.03
55470;BME280;41334;47.872;16.384;2023-07-28T14:46:17;98419.38;;;25.22;49.91
55470;BME280;41334;47.872;16.384;2023-07-28T14:51:19;98418.25;;;24.96;51.65
55470;BME280;41334;47.872;16.384;2023-07-28T14:56:21;98428.97;;;24.84;51.14
55470;BME280;41334;47.872;16.384;2023-07-28T15:01:26;98429.94;;;24.54;50.69
55470;BME280;41334;47.872;16.384;2023-07-28T15:06:30;98430.88;;;24.48;48.82
55470;BME280;41334;47.872;16.384;2023-07-28T15:11:32;98434.06;;;24.26;49.88
55470;BME280;41334;47.872;16.384;2023-07-28T15:16:35;98430.16;;;24.17;49.32
55470;BME280;41334;47.872;16.384;2023-07-28T15:21:37;98428.94;;;23.91;49.94
55470;BME280;41334;47.872;16.384;2023-07-28T15:26:39;98432.78;;;23.77;50.22
55470;BME280;41334;47.872;16.384;2023-07-28T15:31:40;98435.00;;;23.62;52.96
55470;BME280;41334;47.872;16.384;2023-07-28T15:36:42;98427.34;;;23.59;52.75
55470;BME280;41334;47.872;16.384;2023-07-28T15:41:46;98430.97;;;23.59;52.67
55470;BME280;41334;47.872;16.384;2023-07-28T15:46:48;98433.38;;;23.61;53.31
55470;BME280;41334;47.872;16.384;2023-07-28T15:51:50;98438.03;;;23.44;54.75
55470;BME280;41334;47.872;16.384;2023-07-28T15:56:52;98447.09;;;23.32;56.90
55470;BME280;41334;47.872;16.384;2023-07-28T16:01:55;98450.03;;;23.21;56.26
55470;BME280;41334;47.872;16.384;2023-07-28T16:06:56;98454.25;;;22.65;61.55
55470;BME280;41334;47.872;16.384;2023-07-28T16:11:58;98460.47;;;22.45;61.20
55470;BME280;41334;47.872;16.384;2023-07-28T16:17:00;98469.47;;;22.29;60.96
55470;BME280;41334;47.872;16.384;2023-07-28T16:22:04;98464.59;;;22.30;61.99
55470;BME280;41334;47.872;16.384;2023-07-28T16:27:05;98474.75;;;22.24;62.99
55470;BME280;41334;47.872;16.384;2023-07-28T16:32:07;98480.03;;;22.18;64.37
55470;BME280;41334;47.872;16.384;2023-07-28T16:37:11;98476.44;;;22.11;62.01
55470;BME280;41334;47.872;16.384;2023-07-28T16:42:13;98486.56;;;22.01;62.09
55470;BME280;41334;47.872;16.384;2023-07-28T16:47:15;98492.69;;;21.89;63.15
55470;BME280;41334;47.872;16.384;2023-07-28T16:52:18;98480.19;;;21.90;64.92
55470;BME280;41334;47.872;16.384;2023-07-28T16:57:20;98488.72;;;21.83;64.04
55470;BME280;41334;47.872;16.384;2023-07-28T17:02:22;98491.16;;;21.77;63.91
55470;BME280;41334;47.872;16.384;2023-07-28T17:07:24;98490.38;;;21.73;62.28
55470;BME280;41334;47.872;16.384;2023-07-28T17:12:26;98492.03;;;21.63;63.33
55470;BME280;41334;47.872;16.384;2023-07-28T17:17:28;98478.72;;;21.64;62.21
55470;BME280;41334;47.872;16.384;2023-07-28T17:22:30;98488.84;;;21.50;63.52
55470;BME280;41334;47.872;16.384;2023-07-28T17:27:32;98495.28;;;21.47;65.38
55470;BME280;41334;47.872;16.384;2023-07-28T17:32:34;98494.91;;;21.38;64.59
55470;BME280;41334;47.872;16.384;2023-07-28T17:37:36;98490.91;;;21.32;64.63
55470;BME280;41334;47.872;16.384;2023-07-28T17:42:37;98494.94;;;21.31;64.23
55470;BME280;41334;47.872;16.384;2023-07-28T17:47:39;98504.19;;;21.32;64.48
55470;BME280;41334;47.872;16.384;2023-07-28T17:52:42;98515.47;;;21.32;66.78
55470;BME280;41334;47.872;16.384;2023-07-28T17:57:44;98515.88;;;21.26;65.42
55470;BME280;41334;47.872;16.384;2023-07-28T18:02:46;98503.81;;;21.26;65.55
55470;BME280;41334;47.872;16.384;2023-07-28T18:07:48;98507.84;;;21.21;66.78
55470;BME280;41334;47.872;16.384;2023-07-28T18:12:51;98503.47;;;21.06;65.06
55470;BME280;41334;47.872;16.384;2023-07-28T18:17:52;98497.84;;;20.95;67.26
55470;BME280;41334;47.872;16.384;2023-07-28T18:22:54;98500.66;;;20.95;66.14
55470;BME280;41334;47.872;16.384;2023-07-28T18:27:56;98495.06;;;20.92;66.53
55470;BME280;41334;47.872;16.384;2023-07-28T18:32:59;98495.44;;;20.72;67.23
55470;BME280;41334;47.872;16.384;2023-07-28T18:38:01;98501.91;;;20.69;66.84
55470;BME280;41334;47.872;16.384;2023-07-28T18:43:03;98500.28;;;20.65;68.65
55470;BME280;41334;47.872;16.384;2023-07-28T18:48:05;98512.34;;;20.58;66.96
55470;BME280;41334;47.872;16.384;2023-07-28T18:53:08;98509.53;;;20.47;69.94
55470;BME280;41334;47.872;16.384;2023-07-28T18:58:10;98518.34;;;20.32;66.75
55470;BME280;41334;47.872;16.384;2023-07-28T19:03:12;98517.16;;;20.22;67.84
55470;BME280;41334;47.872;16.384;2023-07-28T19:08:15;98517.50;;;20.06;68.62
55470;BME280;41334;47.872;16.384;2023-07-28T19:13:18;98515.44;;;19.82;70.76
55470;BME280;41334;47.872;16.384;2023-07-28T19:18:20;98516.59;;;19.66;69.30
55470;BME280;41334;47.872;16.384;2023-07-28T19:23:22;98524.53;;;19.50;70.86
55470;BME280;41334;47.872;16.384;2023-07-28T19:28:24;98527.31;;;19.39;69.53
55470;BME280;41334;47.872;16.384;2023-07-28T19:33:26;98526.84;;;19.30;70.95
55470;BME280;41334;47.872;16.384;2023-07-28T19:38:28;98528.78;;;19.15;71.46
55470;BME280;41334;47.872;16.384;2023-07-28T19:43:31;98522.28;;;19.04;70.47
55470;BME280;41334;47.872;16.384;2023-07-28T19:48:33;98531.84;;;18.96;71.26
55470;BME280;41334;47.872;16.384;2023-07-28T19:53:35;98533.00;;;18.88;71.21
55470;BME280;41334;47.872;16.384;2023-07-28T19:58:37;98533.34;;;18.79;70.58
55470;BME280;41334;47.872;16.384;2023-07-28T20:03:39;98513.63;;;18.69;70.22
55470;BME280;41334;47.872;16.384;2023-07-28T20:08:41;98534.06;;;18.69;69.60
55470;BME280;41334;47.872;16.384;2023-07-28T20:13:43;98534.81;;;18.66;71.26
55470;BME280;41334;47.872;16.384;2023-07-28T20:18:45;98532.38;;;18.57;71.86
55470;BME280;41334;47.872;16.384;2023-07-28T20:23:49;98540.22;;;18.45;72.18
55470;BME280;41334;47.872;16.384;2023-07-28T20:28:51;98546.53;;;18.34;72.26
55470;BME280;41334;47.872;16.384;2023-07-28T20:33:53;98560.09;;;18.25;72.65
55470;BME280;41334;47.872;16.384;2023-07-28T20:38:55;98572.44;;;18.17;73.11
55470;BME280;41334;47.872;16.384;2023-07-28T20:43:57;98574.38;;;18.13;72.03
55470;BME280;41334;47.872;16.384;2023-07-28T20:48:59;98570.81;;;18.16;70.80
55470;BME280;41334;47.872;16.384;2023-07-28T20:54:02;98572.88;;;18.19;71.37
55470;BME280;41334;47.872;16.384;2023-07-28T20:59:04;98584.66;;;18.35;69.43
55470;BME280;41334;47.872;16.384;2023-07-28T21:04:06;98584.66;;;18.39;70.26
55470;BME280;41334;47.872;16.384;2023-07-28T21:09:08;98598.41;;;18.48;69.95
55470;BME280;41334;47.872;16.384;2023-07-28T21:14:10;98589.66;;;18.53;70.50
55470;BME280;41334;47.872;16.384;2023-07-28T21:19:12;98586.38;;;18.47;71.07
55470;BME280;41334;47.872;16.384;2023-07-28T21:24:14;98589.88;;;18.37;70.58
55470;BME280;41334;47.872;16.384;2023-07-28T21:29:18;98592.59;;;18.30;72.27
55470;BME280;41334;47.872;16.384;2023-07-28T21:34:20;98592.50;;;18.19;71.29
55470;BME280;41334;47.872;16.384;2023-07-28T21:39:22;98594.00;;;18.09;71.94
55470;BME280;41334;47.872;16.384;2023-07-28T21:44:24;98599.50;;;18.02;72.92
55470;BME280;41334;47.872;16.384;2023-07-28T21:49:27;98589.81;;;17.96;73.21
55470;BME280;41334;47.872;16.384;2023-07-28T21:54:30;98592.16;;;17.91;72.40
55470;BME280;41334;47.872;16.384;2023-07-28T21:59:32;98597.41;;;17.96;72.55
55470;BME280;41334;47.872;16.384;2023-07-28T22:04:34;98603.13;;;18.03;71.20
55470;BME280;41334;47.872;16.384;2023-07-28T22:09:36;98603.53;;;18.05;70.54
55470;BME280;41334;47.872;16.384;2023-07-28T22:14:38;98603.16;;;18.06;69.58
55470;BME280;41334;47.872;16.384;2023-07-28T22:19:40;98609.97;;;18.05;69.67
55470;BME280;41334;47.872;16.384;2023-07-28T22:24:42;98613.16;;;18.04;68.87
55470;BME280;41334;47.872;16.384;2023-07-28T22:29:45;98616.75;;;18.04;68.61
55470;BME280;41334;47.872;16.384;2023-07-28T22:34:47;98622.78;;;18.06;67.90
55470;BME280;41334;47.872;16.384;2023-07-28T22:39:49;98621.59;;;18.07;66.99
55470;BME280;41334;47.872;16.384;2023-07-28T22:44:51;98617.63;;;18.08;67.79
55470;BME280;41334;47.872;16.384;2023-07-28T22:49:53;98618.78;;;18.07;67.32
55470;BME280;41334;47.872;16.384;2023-07-28T22:54:55;98617.22;;;18.10;66.52
55470;BME280;41334;47.872;16.384;2023-07-28T23:00:14;98619.72;;;18.19;67.51
55470;BME280;41334;47.872;16.384;2023-07-28T23:05:24;98610.88;;;18.17;67.03
55470;BME280;41334;47.872;16.384;2023-07-28T23:10:26;98610.00;;;18.09;68.88
55470;BME280;41334;47.872;16.384;2023-07-28T23:15:28;98612.72;;;18.02;69.45
55470;BME280;41334;47.872;16.384;2023-07-28T23:20:30;98613.81;;;17.94;69.33
55470;BME280;41334;47.872;16.384;2023-07-28T23:25:34;98613.31;;;17.84;69.43
55470;BME280;41334;47.872;16.384;2023-07-28T23:30:35;98616.44;;;17.79;70.06
55470;BME280;41334;47.872;16.384;2023-07-28T23:35:38;98608.38;;;17.74;69.60
55470;BME280;41334;47.872;16.384;2023-07-28T23:40:40;98603.09;;;17.69;69.96
55470;BME280;41334;47.872;16.384;2023-07-28T23:45:42;98606.28;;;17.68;69.29
55470;BME280;41334;47.872;16.384;2023-07-28T23:50:44;98590.34;;;17.72;69.85
55470;BME280;41334;47.872;16.384;2023-07-28T23:55:46;98599.22;;;17.77;68.38
